sensor_id;sensor_type;location;lat;lon;timestamp;temperature;humidity
49184;DHT22;35021;49.214;12.270;2022-09-03T00:00:02;21.80;47.10
49184;DHT22;35021;49.214;12.270;2022-09-03T00:02:52;21.80;47.10
49184;DHT22;35021;49.214;12.270;2022-09-03T00:05:28;21.80;47.10
49184;DHT22;35021;49.214;12.270;2022-09-03T00:08:16;21.80;47.10
49184;DHT22;35021;49.214;12.270;2022-09-03T00:10:58;21.80;47.10
49184;DHT22;35021;49.214;12.270;2022-09-03T00:13:35;21.80;47.00
49184;DHT22;35021;49.214;12.270;2022-09-03T00:16:08;21.80;47.00
49184;DHT22;35021;49.214;12.270;2022-09-03T00:18:46;21.80;47.00
49184;DHT22;35021;49.214;12.270;2022-09-03T00:21:22;21.80;47.00
49184;DHT22;35021;49.214;12.270;2022-09-03T00:23:51;21.80;47.00
49184;DHT22;35021;49.214;12.270;2022-09-03T00:26:32;21.80;47.00
49184;DHT22;35021;49.214;12.270;2022-09-03T00:29:17;21.80;47.00
49184;DHT22;35021;49.214;12.270;2022-09-03T00:31:52;21.80;46.90
49184;DHT22;35021;49.214;12.270;2022-09-03T00:34:29;21.80;46.90
49184;DHT22;35021;49.214;12.270;2022-09-03T00:36:56;21.80;46.90
49184;DHT22;35021;49.214;12.270;2022-09-03T00:39:25;21.80;46.80
49184;DHT22;35021;49.214;12.270;2022-09-03T00:47:52;21.80;46.70
49184;DHT22;35021;49.214;12.270;2022-09-03T00:50:33;21.80;46.70
49184;DHT22;35021;49.214;12.270;2022-09-03T00:53:33;21.80;46.60
49184;DHT22;35021;49.214;12.270;2022-09-03T00:56:23;21.80;46.50
49184;DHT22;35021;49.214;12.270;2022-09-03T01:07:17;21.80;46.40
49184;DHT22;35021;49.214;12.270;2022-09-03T01:10:03;21.80;46.40
49184;DHT22;35021;49.214;12.270;2022-09-03T01:12:56;21.80;47.10
49184;DHT22;35021;49.214;12.270;2022-09-03T01:16:33;21.80;46.40
49184;DHT22;35021;49.214;12.270;2022-09-03T01:26:32;21.80;46.20
49184;DHT22;35021;49.214;12.270;2022-09-03T01:29:15;21.80;46.20
49184;DHT22;35021;49.214;12.270;2022-09-03T01:32:09;21.80;46.30
49184;DHT22;35021;49.214;12.270;2022-09-03T01:34:54;21.80;46.30
49184;DHT22;35021;49.214;12.270;2022-09-03T01:43:09;21.80;46.20
49184;DHT22;35021;49.214;12.270;2022-09-03T01:46:06;21.80;46.20
49184;DHT22;35021;49.214;12.270;2022-09-03T01:48:41;21.80;46.30
49184;DHT22;35021;49.214;12.270;2022-09-03T01:51:24;21.70;46.30
49184;DHT22;35021;49.214;12.270;2022-09-03T01:54:01;21.70;46.30
49184;DHT22;35021;49.214;12.270;2022-09-03T02:00:08;21.70;46.20
49184;DHT22;35021;49.214;12.270;2022-09-03T02:02:44;21.70;46.20
49184;DHT22;35021;49.214;12.270;2022-09-03T02:05:23;21.70;46.20
49184;DHT22;35021;49.214;12.270;2022-09-03T02:07:59;21.70;46.20
49184;DHT22;35021;49.214;12.270;2022-09-03T02:10:49;21.70;46.20
49184;DHT22;35021;49.214;12.270;2022-09-03T02:13:31;21.70;46.30
49184;DHT22;35021;49.214;12.270;2022-09-03T02:16:02;21.70;46.20
49184;DHT22;35021;49.214;12.270;2022-09-03T02:18:40;21.70;46.20
49184;DHT22;35021;49.214;12.270;2022-09-03T02:21:08;21.70;46.10
49184;DHT22;35021;49.214;12.270;2022-09-03T02:23:39;21.70;46.20
49184;DHT22;35021;49.214;12.270;2022-09-03T02:26:07;21.70;46.10
49184;DHT22;35021;49.214;12.270;2022-09-03T02:28:36;21.70;46.10
49184;DHT22;35021;49.214;12.270;2022-09-03T02:31:03;21.70;46.00
49184;DHT22;35021;49.214;12.270;2022-09-03T02:33:36;21.70;46.00
49184;DHT22;35021;49.214;12.270;2022-09-03T02:36:09;21.70;46.00
49184;DHT22;35021;49.214;12.270;2022-09-03T02:38:39;21.70;45.90
49184;DHT22;35021;49.214;12.270;2022-09-03T02:41:07;21.70;45.90
49184;DHT22;35021;49.214;12.270;2022-09-03T02:43:51;21.70;45.90
49184;DHT22;35021;49.214;12.270;2022-09-03T02:46:22;21.70;45.80
49184;DHT22;35021;49.214;12.270;2022-09-03T02:48:53;21.70;45.80
49184;DHT22;35021;49.214;12.270;2022-09-03T02:51:20;21.70;45.80
49184;DHT22;35021;49.214;12.270;2022-09-03T02:53:47;21.70;45.80
49184;DHT22;35021;49.214;12.270;2022-09-03T02:56:16;21.70;45.80
49184;DHT22;35021;49.214;12.270;2022-09-03T02:58:43;21.70;45.80
49184;DHT22;35021;49.214;12.270;2022-09-03T03:01:10;21.70;45.70
49184;DHT22;35021;49.214;12.270;2022-09-03T03:03:43;21.70;45.70
49184;DHT22;35021;49.214;12.270;2022-09-03T03:06:10;21.70;45.70
49184;DHT22;35021;49.214;12.270;2022-09-03T03:08:38;21.60;45.70
49184;DHT22;35021;49.214;12.270;2022-09-03T03:11:05;21.60;45.70
49184;DHT22;35021;49.214;12.270;2022-09-03T03:13:32;21.60;45.70
49184;DHT22;35021;49.214;12.270;2022-09-03T03:16:01;21.60;45.70
49184;DHT22;35021;49.214;12.270;2022-09-03T03:18:28;21.60;45.70
49184;DHT22;35021;49.214;12.270;2022-09-03T03:20:55;21.60;45.70
49184;DHT22;35021;49.214;12.270;2022-09-03T03:23:22;21.60;45.70
49184;DHT22;35021;49.214;12.270;2022-09-03T03:25:49;21.60;45.60
49184;DHT22;35021;49.214;12.270;2022-09-03T03:28:16;21.60;45.60
49184;DHT22;35021;49.214;12.270;2022-09-03T03:30:46;21.60;45.60
49184;DHT22;35021;49.214;12.270;2022-09-03T03:33:14;21.60;45.50
49184;DHT22;35021;49.214;12.270;2022-09-03T03:35:41;21.60;45.50
49184;DHT22;35021;49.214;12.270;2022-09-03T03:38:08;21.60;45.50
49184;DHT22;35021;49.214;12.270;2022-09-03T03:40:37;21.60;45.40
49184;DHT22;35021;49.214;12.270;2022-09-03T03:43:04;21.60;45.40
49184;DHT22;35021;49.214;12.270;2022-09-03T03:45:31;21.60;45.40
49184;DHT22;35021;49.214;12.270;2022-09-03T03:47:58;21.60;45.40
49184;DHT22;35021;49.214;12.270;2022-09-03T03:50:25;21.60;45.30
49184;DHT22;35021;49.214;12.270;2022-09-03T03:52:52;21.60;45.30
49184;DHT22;35021;49.214;12.270;2022-09-03T03:55:19;21.60;45.20
49184;DHT22;35021;49.214;12.270;2022-09-03T03:57:45;21.60;45.20
49184;DHT22;35021;49.214;12.270;2022-09-03T04:00:15;21.60;45.10
49184;DHT22;35021;49.214;12.270;2022-09-03T04:02:42;21.60;45.10
49184;DHT22;35021;49.214;12.270;2022-09-03T04:05:09;21.60;45.10
49184;DHT22;35021;49.214;12.270;2022-09-03T04:07:37;21.60;45.10
49184;DHT22;35021;49.214;12.270;2022-09-03T04:10:04;21.60;45.10
49184;DHT22;35021;49.214;12.270;2022-09-03T04:12:31;21.60;45.10
49184;DHT22;35021;49.214;12.270;2022-09-03T04:14:58;21.60;45.10
49184;DHT22;35021;49.214;12.270;2022-09-03T04:17:26;21.60;45.20
49184;DHT22;35021;49.214;12.270;2022-09-03T04:19:53;21.60;45.20
49184;DHT22;35021;49.214;12.270;2022-09-03T04:22:20;21.60;45.20
49184;DHT22;35021;49.214;12.270;2022-09-03T04:24:47;21.60;45.20
49184;DHT22;35021;49.214;12.270;2022-09-03T04:27:13;21.60;45.20
49184;DHT22;35021;49.214;12.270;2022-09-03T04:29:40;21.60;45.20
49184;DHT22;35021;49.214;12.270;2022-09-03T04:32:07;21.60;45.20
49184;DHT22;35021;49.214;12.270;2022-09-03T04:34:52;21.60;45.90
49184;DHT22;35021;49.214;12.270;2022-09-03T04:37:19;21.60;45.10
49184;DHT22;35021;49.214;12.270;2022-09-03T04:39:46;21.60;45.10
49184;DHT22;35021;49.214;12.270;2022-09-03T04:42:13;21.60;45.20
49184;DHT22;35021;49.214;12.270;2022-09-03T04:44:40;21.60;45.10
49184;DHT22;35021;49.214;12.270;2022-09-03T04:47:07;21.60;45.10
49184;DHT22;35021;49.214;12.270;2022-09-03T04:49:34;21.60;45.10
49184;DHT22;35021;49.214;12.270;2022-09-03T04:52:02;21.60;45.50
49184;DHT22;35021;49.214;12.270;2022-09-03T04:54:29;21.60;45.80
49184;DHT22;35021;49.214;12.270;2022-09-03T04:56:55;21.60;45.10
49184;DHT22;35021;49.214;12.270;2022-09-03T04:59:22;21.60;45.10
49184;DHT22;35021;49.214;12.270;2022-09-03T05:01:49;21.60;45.10
49184;DHT22;35021;49.214;12.270;2022-09-03T05:04:18;21.60;45.10
49184;DHT22;35021;49.214;12.270;2022-09-03T05:06:45;21.60;45.20
49184;DHT22;35021;49.214;12.270;2022-09-03T05:09:12;21.60;45.30
49184;DHT22;35021;49.214;12.270;2022-09-03T05:11:39;21.60;45.40
49184;DHT22;35021;49.214;12.270;2022-09-03T05:14:05;21.60;45.50
49184;DHT22;35021;49.214;12.270;2022-09-03T05:16:32;21.50;45.50
49184;DHT22;35021;49.214;12.270;2022-09-03T05:18:59;21.50;45.70
49184;DHT22;35021;49.214;12.270;2022-09-03T05:21:27;21.50;45.60
49184;DHT22;35021;49.214;12.270;2022-09-03T05:23:56;21.50;45.70
49184;DHT22;35021;49.214;12.270;2022-09-03T05:26:25;21.50;45.70
49184;DHT22;35021;49.214;12.270;2022-09-03T05:29:00;21.50;45.80
49184;DHT22;35021;49.214;12.270;2022-09-03T05:31:29;21.50;45.90
49184;DHT22;35021;49.214;12.270;2022-09-03T05:34:00;21.50;46.00
49184;DHT22;35021;49.214;12.270;2022-09-03T05:36:37;21.50;46.10
49184;DHT22;35021;49.214;12.270;2022-09-03T05:39:12;21.50;46.20
49184;DHT22;35021;49.214;12.270;2022-09-03T05:42:03;21.50;46.30
49184;DHT22;35021;49.214;12.270;2022-09-03T05:44:39;21.50;46.40
49184;DHT22;35021;49.214;12.270;2022-09-03T05:47:09;21.50;46.50
49184;DHT22;35021;49.214;12.270;2022-09-03T05:49:41;21.40;46.60
49184;DHT22;35021;49.214;12.270;2022-09-03T05:52:19;21.50;46.70
49184;DHT22;35021;49.214;12.270;2022-09-03T05:54:58;21.40;46.80
49184;DHT22;35021;49.214;12.270;2022-09-03T05:57:33;21.40;46.90
49184;DHT22;35021;49.214;12.270;2022-09-03T06:00:07;21.40;47.10
49184;DHT22;35021;49.214;12.270;2022-09-03T06:02:43;21.50;47.20
49184;DHT22;35021;49.214;12.270;2022-09-03T06:05:28;21.40;47.30
49184;DHT22;35021;49.214;12.270;2022-09-03T06:08:08;21.40;47.40
49184;DHT22;35021;49.214;12.270;2022-09-03T06:10:43;21.50;47.50
49184;DHT22;35021;49.214;12.270;2022-09-03T06:13:14;21.50;47.50
49184;DHT22;35021;49.214;12.270;2022-09-03T06:15:59;21.50;47.60
49184;DHT22;35021;49.214;12.270;2022-09-03T06:18:32;21.50;47.60
49184;DHT22;35021;49.214;12.270;2022-09-03T06:21:06;21.50;47.50
49184;DHT22;35021;49.214;12.270;2022-09-03T06:23:53;21.50;47.50
49184;DHT22;35021;49.214;12.270;2022-09-03T06:26:35;21.50;47.50
49184;DHT22;35021;49.214;12.270;2022-09-03T06:29:33;21.50;47.50
49184;DHT22;35021;49.214;12.270;2022-09-03T06:32:07;21.50;47.50
49184;DHT22;35021;49.214;12.270;2022-09-03T06:34:52;21.50;47.50
49184;DHT22;35021;49.214;12.270;2022-09-03T06:37:38;21.40;47.40
49184;DHT22;35021;49.214;12.270;2022-09-03T06:40:14;21.40;47.50
49184;DHT22;35021;49.214;12.270;2022-09-03T06:42:55;21.40;47.40
49184;DHT22;35021;49.214;12.270;2022-09-03T06:45:29;21.40;47.50
49184;DHT22;35021;49.214;12.270;2022-09-03T06:47:56;21.40;47.50
49184;DHT22;35021;49.214;12.270;2022-09-03T06:50:29;21.40;47.50
49184;DHT22;35021;49.214;12.270;2022-09-03T06:53:05;21.40;47.50
49184;DHT22;35021;49.214;12.270;2022-09-03T06:55:58;21.40;47.60
49184;DHT22;35021;49.214;12.270;2022-09-03T06:58:33;21.50;47.60
49184;DHT22;35021;49.214;12.270;2022-09-03T07:01:23;21.40;47.70
49184;DHT22;35021;49.214;12.270;2022-09-03T07:04:23;21.50;47.70
49184;DHT22;35021;49.214;12.270;2022-09-03T07:07:00;21.50;47.80
49184;DHT22;35021;49.214;12.270;2022-09-03T07:09:37;21.50;47.80
49184;DHT22;35021;49.214;12.270;2022-09-03T07:12:14;21.50;47.80
49184;DHT22;35021;49.214;12.270;2022-09-03T07:14:55;21.50;47.80
49184;DHT22;35021;49.214;12.270;2022-09-03T07:17:26;21.50;47.90
49184;DHT22;35021;49.214;12.270;2022-09-03T07:20:04;21.40;47.80
49184;DHT22;35021;49.214;12.270;2022-09-03T07:23:01;21.40;47.90
49184;DHT22;35021;49.214;12.270;2022-09-03T07:25:43;21.40;47.90
49184;DHT22;35021;49.214;12.270;2022-09-03T07:28:45;21.40;48.00
49184;DHT22;35021;49.214;12.270;2022-09-03T07:31:40;21.40;48.00
49184;DHT22;35021;49.214;12.270;2022-09-03T07:34:12;21.40;48.10
49184;DHT22;35021;49.214;12.270;2022-09-03T07:36:45;21.30;48.10
49184;DHT22;35021;49.214;12.270;2022-09-03T07:39:17;21.30;48.10
49184;DHT22;35021;49.214;12.270;2022-09-03T07:41:47;21.30;48.20
49184;DHT22;35021;49.214;12.270;2022-09-03T07:44:17;21.30;48.20
49184;DHT22;35021;49.214;12.270;2022-09-03T07:46:51;21.30;48.20
49184;DHT22;35021;49.214;12.270;2022-09-03T07:49:26;21.40;48.20
49184;DHT22;35021;49.214;12.270;2022-09-03T07:52:09;21.30;48.10
49184;DHT22;35021;49.214;12.270;2022-09-03T07:54:56;21.30;48.00
49184;DHT22;35021;49.214;12.270;2022-09-03T07:57:45;21.30;48.00
49184;DHT22;35021;49.214;12.270;2022-09-03T08:00:24;21.30;48.00
49184;DHT22;35021;49.214;12.270;2022-09-03T08:02:55;21.30;48.00
49184;DHT22;35021;49.214;12.270;2022-09-03T08:14:40;21.40;48.20
49184;DHT22;35021;49.214;12.270;2022-09-03T08:17:21;21.30;48.00
49184;DHT22;35021;49.214;12.270;2022-09-03T08:20:12;21.30;48.00
49184;DHT22;35021;49.214;12.270;2022-09-03T08:22:50;21.30;48.00
49184;DHT22;35021;49.214;12.270;2022-09-03T08:25:23;21.40;48.10
49184;DHT22;35021;49.214;12.270;2022-09-03T08:27:59;21.30;48.10
49184;DHT22;35021;49.214;12.270;2022-09-03T08:30:40;21.40;48.30
49184;DHT22;35021;49.214;12.270;2022-09-03T08:33:10;21.40;48.40
49184;DHT22;35021;49.214;12.270;2022-09-03T08:35:52;21.40;48.50
49184;DHT22;35021;49.214;12.270;2022-09-03T08:38:38;21.40;48.70
49184;DHT22;35021;49.214;12.270;2022-09-03T08:45:00;21.50;48.60
49184;DHT22;35021;49.214;12.270;2022-09-03T08:47:42;21.50;48.60
49184;DHT22;35021;49.214;12.270;2022-09-03T08:50:35;21.50;48.70
49184;DHT22;35021;49.214;12.270;2022-09-03T08:53:18;21.50;48.80
49184;DHT22;35021;49.214;12.270;2022-09-03T08:55:59;21.60;49.00
49184;DHT22;35021;49.214;12.270;2022-09-03T08:58:41;21.60;49.10
49184;DHT22;35021;49.214;12.270;2022-09-03T09:08:43;21.60;49.60
49184;DHT22;35021;49.214;12.270;2022-09-03T09:22:28;21.60;49.00
49184;DHT22;35021;49.214;12.270;2022-09-03T09:25:27;21.60;49.10
49184;DHT22;35021;49.214;12.270;2022-09-03T09:28:23;21.60;49.30
49184;DHT22;35021;49.214;12.270;2022-09-03T09:34:04;21.60;49.30
49184;DHT22;35021;49.214;12.270;2022-09-03T09:37:00;21.70;49.50
49184;DHT22;35021;49.214;12.270;2022-09-03T09:43:24;21.70;49.50
49184;DHT22;35021;49.214;12.270;2022-09-03T09:46:24;21.70;49.50
49184;DHT22;35021;49.214;12.270;2022-09-03T09:53:06;21.70;49.60
49184;DHT22;35021;49.214;12.270;2022-09-03T09:56:03;21.70;49.70
49184;DHT22;35021;49.214;12.270;2022-09-03T09:58:37;21.70;49.70
49184;DHT22;35021;49.214;12.270;2022-09-03T10:01:49;21.70;49.60
49184;DHT22;35021;49.214;12.270;2022-09-03T10:08:39;21.80;49.80
49184;DHT22;35021;49.214;12.270;2022-09-03T10:11:11;21.80;49.70
49184;DHT22;35021;49.214;12.270;2022-09-03T10:13:41;21.80;49.70
49184;DHT22;35021;49.214;12.270;2022-09-03T10:16:26;21.80;49.70
49184;DHT22;35021;49.214;12.270;2022-09-03T10:18:57;21.90;49.80
49184;DHT22;35021;49.214;12.270;2022-09-03T10:24:32;21.90;49.90
49184;DHT22;35021;49.214;12.270;2022-09-03T10:27:08;21.90;49.90
49184;DHT22;35021;49.214;12.270;2022-09-03T10:29:39;21.90;50.60
49184;DHT22;35021;49.214;12.270;2022-09-03T10:32:27;21.90;49.90
49184;DHT22;35021;49.214;12.270;2022-09-03T10:38:01;22.00;50.10
49184;DHT22;35021;49.214;12.270;2022-09-03T10:41:13;21.90;50.10
49184;DHT22;35021;49.214;12.270;2022-09-03T10:57:50;22.00;50.40
49184;DHT22;35021;49.214;12.270;2022-09-03T11:00:19;22.00;50.40
49184;DHT22;35021;49.214;12.270;2022-09-03T11:03:19;22.00;50.40
49184;DHT22;35021;49.214;12.270;2022-09-03T11:08:27;22.00;50.40
49184;DHT22;35021;49.214;12.270;2022-09-03T11:11:17;22.00;50.40
49184;DHT22;35021;49.214;12.270;2022-09-03T11:13:50;22.00;50.40
49184;DHT22;35021;49.214;12.270;2022-09-03T11:16:27;22.00;50.30
49184;DHT22;35021;49.214;12.270;2022-09-03T11:19:02;22.00;50.40
49184;DHT22;35021;49.214;12.270;2022-09-03T11:21:30;22.00;50.40
49184;DHT22;35021;49.214;12.270;2022-09-03T11:24:24;22.00;50.40
49184;DHT22;35021;49.214;12.270;2022-09-03T11:27:03;22.00;50.50
49184;DHT22;35021;49.214;12.270;2022-09-03T11:32:21;22.00;50.60
49184;DHT22;35021;49.214;12.270;2022-09-03T11:34:52;22.00;50.70
49184;DHT22;35021;49.214;12.270;2022-09-03T11:37:27;22.00;50.70
49184;DHT22;35021;49.214;12.270;2022-09-03T11:40:13;22.00;50.70
49184;DHT22;35021;49.214;12.270;2022-09-03T11:42:44;22.00;50.70
49184;DHT22;35021;49.214;12.270;2022-09-03T11:45:35;22.10;50.80
49184;DHT22;35021;49.214;12.270;2022-09-03T11:48:17;22.10;50.80
49184;DHT22;35021;49.214;12.270;2022-09-03T11:50:53;22.10;50.70
49184;DHT22;35021;49.214;12.270;2022-09-03T11:53:25;22.10;50.80
49184;DHT22;35021;49.214;12.270;2022-09-03T11:55:58;22.10;50.80
49184;DHT22;35021;49.214;12.270;2022-09-03T11:58:38;22.10;50.80
49184;DHT22;35021;49.214;12.270;2022-09-03T12:01:13;22.10;50.80
49184;DHT22;35021;49.214;12.270;2022-09-03T12:03:59;22.10;50.90
49184;DHT22;35021;49.214;12.270;2022-09-03T12:09:15;22.10;51.00
49184;DHT22;35021;49.214;12.270;2022-09-03T12:14:53;22.10;51.20
49184;DHT22;35021;49.214;12.270;2022-09-03T12:17:34;22.00;51.10
49184;DHT22;35021;49.214;12.270;2022-09-03T12:20:11;22.00;51.20
49184;DHT22;35021;49.214;12.270;2022-09-03T12:22:39;22.00;51.30
49184;DHT22;35021;49.214;12.270;2022-09-03T12:25:13;22.00;51.30
49184;DHT22;35021;49.214;12.270;2022-09-03T12:27:44;22.00;51.40
49184;DHT22;35021;49.214;12.270;2022-09-03T12:30:17;22.00;51.40
49184;DHT22;35021;49.214;12.270;2022-09-03T12:32:45;22.00;51.50
49184;DHT22;35021;49.214;12.270;2022-09-03T12:35:19;22.00;51.50
49184;DHT22;35021;49.214;12.270;2022-09-03T12:38:06;22.00;51.60
49184;DHT22;35021;49.214;12.270;2022-09-03T12:40:41;22.00;51.60
49184;DHT22;35021;49.214;12.270;2022-09-03T12:43:34;22.00;51.60
49184;DHT22;35021;49.214;12.270;2022-09-03T12:46:22;22.00;51.70
49184;DHT22;35021;49.214;12.270;2022-09-03T12:49:07;22.10;51.90
49184;DHT22;35021;49.214;12.270;2022-09-03T12:52:06;22.10;51.80
49184;DHT22;35021;49.214;12.270;2022-09-03T12:54:43;22.10;51.90
49184;DHT22;35021;49.214;12.270;2022-09-03T13:00:31;22.10;51.90
49184;DHT22;35021;49.214;12.270;2022-09-03T13:03:12;22.10;51.90
49184;DHT22;35021;49.214;12.270;2022-09-03T13:05:49;22.10;51.90
49184;DHT22;35021;49.214;12.270;2022-09-03T13:08:26;22.20;51.90
49184;DHT22;35021;49.214;12.270;2022-09-03T13:11:04;22.20;52.00
49184;DHT22;35021;49.214;12.270;2022-09-03T13:13:37;22.20;52.00
49184;DHT22;35021;49.214;12.270;2022-09-03T13:18:57;22.20;51.90
49184;DHT22;35021;49.214;12.270;2022-09-03T13:25:00;22.30;51.90
49184;DHT22;35021;49.214;12.270;2022-09-03T13:33:56;22.30;51.90
49184;DHT22;35021;49.214;12.270;2022-09-03T13:36:53;22.30;51.90
49184;DHT22;35021;49.214;12.270;2022-09-03T13:39:47;22.30;51.90
49184;DHT22;35021;49.214;12.270;2022-09-03T13:45:13;22.30;51.90
49184;DHT22;35021;49.214;12.270;2022-09-03T13:47:51;22.30;51.90
49184;DHT22;35021;49.214;12.270;2022-09-03T13:50:48;22.30;51.90
49184;DHT22;35021;49.214;12.270;2022-09-03T14:05:08;22.30;52.10
49184;DHT22;35021;49.214;12.270;2022-09-03T14:16:35;22.30;52.40
49184;DHT22;35021;49.214;12.270;2022-09-03T14:21:52;22.30;52.60
49184;DHT22;35021;49.214;12.270;2022-09-03T14:24:25;22.30;52.70
49184;DHT22;35021;49.214;12.270;2022-09-03T14:26:56;22.30;52.80
49184;DHT22;35021;49.214;12.270;2022-09-03T14:29:29;22.30;53.00
49184;DHT22;35021;49.214;12.270;2022-09-03T14:35:04;22.30;53.40
49184;DHT22;35021;49.214;12.270;2022-09-03T14:40:48;22.20;53.90
49184;DHT22;35021;49.214;12.270;2022-09-03T14:43:24;22.20;54.10
49184;DHT22;35021;49.214;12.270;2022-09-03T14:59:31;22.10;55.90
49184;DHT22;35021;49.214;12.270;2022-09-03T15:08:08;22.10;56.90
49184;DHT22;35021;49.214;12.270;2022-09-03T15:10:51;22.10;57.10
49184;DHT22;35021;49.214;12.270;2022-09-03T15:13:44;22.10;57.10
49184;DHT22;35021;49.214;12.270;2022-09-03T15:19:31;22.10;57.20
49184;DHT22;35021;49.214;12.270;2022-09-03T15:22:07;22.10;57.40
49184;DHT22;35021;49.214;12.270;2022-09-03T15:30:13;22.20;58.10
49184;DHT22;35021;49.214;12.270;2022-09-03T15:32:48;22.10;58.30
49184;DHT22;35021;49.214;12.270;2022-09-03T15:35:37;22.20;58.50
49184;DHT22;35021;49.214;12.270;2022-09-03T15:43:29;22.20;58.90
49184;DHT22;35021;49.214;12.270;2022-09-03T15:46:08;22.20;58.80
49184;DHT22;35021;49.214;12.270;2022-09-03T15:49:05;22.20;58.90
49184;DHT22;35021;49.214;12.270;2022-09-03T15:54:47;22.20;59.20
49184;DHT22;35021;49.214;12.270;2022-09-03T15:57:28;22.20;59.30
49184;DHT22;35021;49.214;12.270;2022-09-03T16:00:02;22.20;59.40
49184;DHT22;35021;49.214;12.270;2022-09-03T16:02:39;22.20;59.50
49184;DHT22;35021;49.214;12.270;2022-09-03T16:05:15;22.20;59.70
49184;DHT22;35021;49.214;12.270;2022-09-03T16:08:29;22.20;59.60
49184;DHT22;35021;49.214;12.270;2022-09-03T16:16:40;22.20;59.50
49184;DHT22;35021;49.214;12.270;2022-09-03T16:19:23;22.20;59.50
49184;DHT22;35021;49.214;12.270;2022-09-03T16:22:02;22.30;59.50
49184;DHT22;35021;49.214;12.270;2022-09-03T16:24:42;22.30;59.50
49184;DHT22;35021;49.214;12.270;2022-09-03T16:38:49;22.30;59.30
49184;DHT22;35021;49.214;12.270;2022-09-03T16:41:26;22.30;59.30
49184;DHT22;35021;49.214;12.270;2022-09-03T17:01:05;22.20;59.60
49184;DHT22;35021;49.214;12.270;2022-09-03T17:03:56;22.10;59.90
49184;DHT22;35021;49.214;12.270;2022-09-03T17:06:54;22.10;59.90
49184;DHT22;35021;49.214;12.270;2022-09-03T17:17:44;22.00;60.60
49184;DHT22;35021;49.214;12.270;2022-09-03T17:20:40;22.00;60.80
49184;DHT22;35021;49.214;12.270;2022-09-03T17:23:40;22.00;61.10
49184;DHT22;35021;49.214;12.270;2022-09-03T17:53:57;21.90;62.80
49184;DHT22;35021;49.214;12.270;2022-09-03T17:56:29;21.80;62.80
49184;DHT22;35021;49.214;12.270;2022-09-03T17:59:03;21.80;62.70
49184;DHT22;35021;49.214;12.270;2022-09-03T18:01:38;21.80;62.70
49184;DHT22;35021;49.214;12.270;2022-09-03T18:10:07;21.90;62.80
49184;DHT22;35021;49.214;12.270;2022-09-03T18:13:10;21.90;62.80
49184;DHT22;35021;49.214;12.270;2022-09-03T18:15:58;21.90;62.80
49184;DHT22;35021;49.214;12.270;2022-09-03T18:18:28;21.90;62.80
49184;DHT22;35021;49.214;12.270;2022-09-03T18:20:58;21.90;62.80
49184;DHT22;35021;49.214;12.270;2022-09-03T18:27:06;21.90;62.80
49184;DHT22;35021;49.214;12.270;2022-09-03T18:30:04;21.90;62.80
49184;DHT22;35021;49.214;12.270;2022-09-03T18:32:50;21.90;62.90
49184;DHT22;35021;49.214;12.270;2022-09-03T18:35:36;21.90;63.10
49184;DHT22;35021;49.214;12.270;2022-09-03T18:38:28;21.90;63.20
49184;DHT22;35021;49.214;12.270;2022-09-03T18:44:32;21.80;63.20
49184;DHT22;35021;49.214;12.270;2022-09-03T18:56:46;21.80;63.40
49184;DHT22;35021;49.214;12.270;2022-09-03T19:09:05;21.80;63.40
49184;DHT22;35021;49.214;12.270;2022-09-03T19:11:57;21.80;63.50
49184;DHT22;35021;49.214;12.270;2022-09-03T19:18:08;21.90;63.50
49184;DHT22;35021;49.214;12.270;2022-09-03T19:21:19;21.90;63.50
49184;DHT22;35021;49.214;12.270;2022-09-03T19:24:06;21.90;63.50
49184;DHT22;35021;49.214;12.270;2022-09-03T19:34:00;21.90;63.60
49184;DHT22;35021;49.214;12.270;2022-09-03T19:40:27;21.90;63.70
49184;DHT22;35021;49.214;12.270;2022-09-03T19:49:48;21.90;63.60
49184;DHT22;35021;49.214;12.270;2022-09-03T19:52:54;22.00;63.70
49184;DHT22;35021;49.214;12.270;2022-09-03T19:55:47;22.00;63.70
49184;DHT22;35021;49.214;12.270;2022-09-03T19:58:37;21.90;63.60
49184;DHT22;35021;49.214;12.270;2022-09-03T20:01:30;22.00;63.60
49184;DHT22;35021;49.214;12.270;2022-09-03T20:04:18;22.00;63.70
49184;DHT22;35021;49.214;12.270;2022-09-03T20:07:07;21.90;63.60
49184;DHT22;35021;49.214;12.270;2022-09-03T20:09:55;21.90;63.60
49184;DHT22;35021;49.214;12.270;2022-09-03T20:13:07;21.90;63.60
49184;DHT22;35021;49.214;12.270;2022-09-03T20:15:49;21.90;63.70
49184;DHT22;35021;49.214;12.270;2022-09-03T20:18:43;21.90;63.60
49184;DHT22;35021;49.214;12.270;2022-09-03T20:21:28;21.90;63.60
49184;DHT22;35021;49.214;12.270;2022-09-03T20:24:23;21.80;63.60
49184;DHT22;35021;49.214;12.270;2022-09-03T20:46:47;21.90;63.40
49184;DHT22;35021;49.214;12.270;2022-09-03T20:52:52;21.90;63.40
49184;DHT22;35021;49.214;12.270;2022-09-03T20:55:59;21.90;63.30
49184;DHT22;35021;49.214;12.270;2022-09-03T21:01:20;21.90;63.30
49184;DHT22;35021;49.214;12.270;2022-09-03T21:04:17;21.90;63.30
49184;DHT22;35021;49.214;12.270;2022-09-03T21:07:12;21.80;63.30
49184;DHT22;35021;49.214;12.270;2022-09-03T21:12:23;21.80;63.40
49184;DHT22;35021;49.214;12.270;2022-09-03T21:14:53;21.80;63.50
49184;DHT22;35021;49.214;12.270;2022-09-03T21:20:11;21.70;63.60
49184;DHT22;35021;49.214;12.270;2022-09-03T21:25:31;21.70;63.60
49184;DHT22;35021;49.214;12.270;2022-09-03T21:28:04;21.70;63.60
49184;DHT22;35021;49.214;12.270;2022-09-03T21:30:35;21.70;63.60
49184;DHT22;35021;49.214;12.270;2022-09-03T21:33:13;21.70;63.60
49184;DHT22;35021;49.214;12.270;2022-09-03T21:35:46;21.70;63.60
49184;DHT22;35021;49.214;12.270;2022-09-03T21:38:21;21.70;63.60
49184;DHT22;35021;49.214;12.270;2022-09-03T21:41:20;21.70;64.20
49184;DHT22;35021;49.214;12.270;2022-09-03T21:46:31;21.70;63.50
49184;DHT22;35021;49.214;12.270;2022-09-03T21:49:07;21.80;63.50
49184;DHT22;35021;49.214;12.270;2022-09-03T21:51:43;21.80;64.10
49184;DHT22;35021;49.214;12.270;2022-09-03T21:54:35;21.80;63.40
49184;DHT22;35021;49.214;12.270;2022-09-03T22:02:31;21.70;63.40
49184;DHT22;35021;49.214;12.270;2022-09-03T22:05:00;21.70;63.40
49184;DHT22;35021;49.214;12.270;2022-09-03T22:07:43;21.70;63.40
49184;DHT22;35021;49.214;12.270;2022-09-03T22:10:33;21.70;63.40
49184;DHT22;35021;49.214;12.270;2022-09-03T22:13:34;21.70;63.30
49184;DHT22;35021;49.214;12.270;2022-09-03T22:16:25;21.70;63.30
49184;DHT22;35021;49.214;12.270;2022-09-03T22:18:54;21.70;63.20
49184;DHT22;35021;49.214;12.270;2022-09-03T22:21:37;21.70;63.20